Map

Track Data

SID SEASON NUMBER BASIN SUBBASIN NAME ISO_TIME NATURE LAT LON WMO_WIND WMO_PRES WMO_AGENCY TRACK_TYPE DIST2LAND LANDFALL IFLAG USA_AGENCY USA_ATCF_ID USA_LAT USA_LON USA_RECORD USA_STATUS USA_WIND USA_PRES USA_SSHS USA_R34_NE USA_R34_SE USA_R34_SW USA_R34_NW USA_R50_NE USA_R50_SE USA_R50_SW USA_R50_NW USA_R64_NE USA_R64_SE USA_R64_SW USA_R64_NW USA_POCI USA_ROCI USA_RMW USA_EYE TOKYO_LAT TOKYO_LON TOKYO_GRADE TOKYO_WIND TOKYO_PRES TOKYO_R50_DIR TOKYO_R50_LONG TOKYO_R50_SHORT TOKYO_R30_DIR TOKYO_R30_LONG TOKYO_R30_SHORT TOKYO_LAND CMA_LAT CMA_LON CMA_CAT CMA_WIND CMA_PRES HKO_LAT HKO_LON HKO_CAT HKO_WIND HKO_PRES NEWDELHI_LAT NEWDELHI_LON NEWDELHI_GRADE NEWDELHI_WIND NEWDELHI_PRES NEWDELHI_CI NEWDELHI_DP NEWDELHI_POCI REUNION_LAT REUNION_LON REUNION_TYPE REUNION_WIND REUNION_PRES REUNION_TNUM REUNION_CI REUNION_RMW REUNION_R34_NE REUNION_R34_SE REUNION_R34_SW REUNION_R34_NW REUNION_R50_NE REUNION_R50_SE REUNION_R50_SW REUNION_R50_NW REUNION_R64_NE REUNION_R64_SE REUNION_R64_SW REUNION_R64_NW BOM_LAT BOM_LON BOM_TYPE BOM_WIND BOM_PRES BOM_TNUM BOM_CI BOM_RMW BOM_R34_NE BOM_R34_SE BOM_R34_SW BOM_R34_NW BOM_R50_NE BOM_R50_SE BOM_R50_SW BOM_R50_NW BOM_R64_NE BOM_R64_SE BOM_R64_SW BOM_R64_NW BOM_ROCI BOM_POCI BOM_EYE BOM_POS_METHOD BOM_PRES_METHOD NADI_LAT NADI_LON NADI_CAT NADI_WIND NADI_PRES WELLINGTON_LAT WELLINGTON_LON WELLINGTON_WIND WELLINGTON_PRES DS824_LAT DS824_LON DS824_STAGE DS824_WIND DS824_PRES TD9636_LAT TD9636_LON TD9636_STAGE TD9636_WIND TD9636_PRES TD9635_LAT TD9635_LON TD9635_WIND TD9635_PRES TD9635_ROCI NEUMANN_LAT NEUMANN_LON NEUMANN_CLASS NEUMANN_WIND NEUMANN_PRES MLC_LAT MLC_LON MLC_CLASS MLC_WIND MLC_PRES USA_GUST BOM_GUST BOM_GUST_PER REUNION_GUST REUNION_GUST_PER USA_SEAHGT USA_SEARAD_NE USA_SEARAD_SE USA_SEARAD_SW USA_SEARAD_NW STORM_SPEED STORM_DIR
1967062S16123 1967 19 SI WA GWEN 1967-03-03 04:00:00 NR -16.0000 123.000 main 55 44 __________O___ -1 -16.0000 123.000 1 20 3 224
1967062S16123 1967 19 SI WA GWEN 1967-03-03 06:00:00 TS -16.0758 122.924 main 44 35 O________OP___ jtwc_sh SH221967 -16.1000 122.900 20 -1 -16.1000 122.900 TC 20 -16.0515 122.948 1 21 3 224
1967062S16123 1967 19 SI WA GWEN 1967-03-03 09:00:00 TS -16.1734 122.825 main 35 30 P________PP___ SH221967 -16.2025 122.795 25 -1 -16.2025 122.795 TC 25 -16.1345 122.865 1 24 3 224
1967062S16123 1967 19 SI WA GWEN 1967-03-03 12:00:00 TS -16.2728 122.727 main 30 30 O________OP___ jtwc_sh SH221967 -16.3000 122.700 30 -1 -16.3000 122.700 TC 30 -16.2320 122.768 1 26 3 223
1967062S16123 1967 19 SI WA GWEN 1967-03-03 15:00:00 TS -16.3793 122.626 main 30 30 P________PP___ SH221967 -16.3925 122.615 30 -1 -16.3925 122.615 TC 30 -16.3530 122.647 1 29 3 222
1967062S16123 1967 19 SI WA GWEN 1967-03-03 16:00:00 TS -16.4169 122.588 main 30 24 P________PO___ SH221967 -16.4254 122.582 30 -1 -16.4254 122.582 TC 30 -16.4000 122.600 1 30 3 225
1967062S16123 1967 19 SI WA GWEN 1967-03-03 18:00:00 TS -16.5015 122.499 main 30 30 O________OP___ jtwc_sh SH221967 -16.5000 122.500 30 -1 -16.5000 122.500 TC 30 -16.5044 122.496 1 30 4 228
1967062S16123 1967 19 SI WA GWEN 1967-03-03 21:00:00 TS -16.6580 122.304 main 30 30 P________PP___ SH221967 -16.6501 122.293 30 -1 -16.6501 122.293 TC 30 -16.6739 122.327 1 30 5 229
1967062S16123 1967 19 SI WA GWEN 1967-03-04 00:00:00 TS -16.8122 122.121 main 39 30 O________OP___ jtwc_sh SH221967 -16.8000 122.100 30 -1 -16.8000 122.100 TC 30 -16.8367 122.164 1 30 5 230
1967062S16123 1967 19 SI WA GWEN 1967-03-04 01:00:00 TS -16.8688 122.044 998 bom main 38 38 P_____O__PP___ SH221967 -16.8443 122.064 30 -1 -17.0000 121.600 998 -16.8443 122.064 TC 30 -16.8851 122.115 1 30 4 232
1967062S16123 1967 19 SI WA GWEN 1967-03-04 03:00:00 TS -16.9284 121.965 main 38 38 P_____P__PP___ SH221967 -16.9225 122.020 30 -1 -16.8737 121.610 -16.9225 122.020 TC 30 -16.9677 122.032 1 30 3 238
1967062S16123 1967 19 SI WA GWEN 1967-03-04 04:00:00 TS -16.9383 121.928 main 48 48 P_____P__PO___ SH221967 -16.9545 122.009 30 -1 -16.8126 121.616 -16.9545 122.009 TC 30 -17.0000 122.000 1 30 2 262
1967062S16123 1967 19 SI WA GWEN 1967-03-04 06:00:00 TS -16.9400 121.886 main 48 48 O_____P__OP_O_ jtwc_sh SH221967 -17.0000 122.000 30 -1 -16.6988 121.626 -17.0000 122.000 TC 30 -17.0211 121.966 1 29 -17.1000 121.700 TC 35 998 1 279
1967062S16123 1967 19 SI WA GWEN 1967-03-04 09:00:00 TS -16.9292 121.871 main 48 48 P_____P__PP_P_ SH221967 -17.0150 121.993 27 -1 -16.5617 121.641 -17.0150 121.993 TC 27 -17.0146 121.952 1 27 -17.1500 121.688 TC 35 998 0 0
1967062S16123 1967 19 SI WA GWEN 1967-03-04 12:00:00 TS -16.9217 121.873 main 48 48 O_____P__OP_O_ jtwc_sh SH221967 -17.0000 122.000 25 -1 -16.4849 121.655 -17.0000 122.000 TC 25 -16.9930 121.967 1 26 -17.2000 121.700 TC 35 998 0 0
1967062S16123 1967 19 SI WA GWEN 1967-03-04 15:00:00 TS -16.9373 121.882 main 48 48 P_____P__PP_P_ SH221967 -16.9775 122.000 25 -1 -16.4909 121.668 -16.9775 122.000 TC 25 -16.9906 121.993 1 25 -17.2500 121.750 TC 35 998 0 0
1967062S16123 1967 19 SI WA GWEN 1967-03-04 16:00:00 TS -16.9469 121.888 main 48 43 P_____P__PO_P_ SH221967 -16.9763 122.000 25 -1 -16.5152 121.672 -16.9763 122.000 TC 25 -17.0000 122.000 1 25 -17.2667 121.769 TC 35 998 1 151
1967062S16123 1967 19 SI WA GWEN 1967-03-04 18:00:00 TS -16.9862 121.896 main 43 38 O_____P__OP_O_ jtwc_sh SH221967 -17.0000 122.000 25 -1 -16.6024 121.680 -17.0000 122.000 TC 25 -17.0286 122.000 1 24 -17.3000 121.800 TC 35 998 2 0
1967062S16123 1967 19 SI WA GWEN 1967-03-04 21:00:00 TS -17.0964 121.898 main 38 31 P_____P__PP_P_ SH221967 -17.1200 122.000 22 -1 -16.8420 121.690 -17.1200 122.000 TC 22 -17.1024 122.000 1 22 -17.2975 121.800 TC 35 998 3 184
1967062S16123 1967 19 SI WA GWEN 1967-03-05 00:00:00 TS -17.2971 121.890 main 31 30 O_____P__OP_O_ jtwc_sh SH221967 -17.3000 122.000 20 -1 -17.2324 121.698 -17.3000 122.000 TC 20 -17.2272 122.000 1 21 -17.4000 121.800 TC 35 998 4 0
1967062S16123 1967 19 SI WA GWEN 1967-03-05 01:00:00 TS -17.3933 121.884 998 bom main 30 21 P_____O__PP_P_ SH221967 -17.3531 122.000 20 -1 -17.4000 121.700 998 -17.3531 122.000 TC 20 -17.2828 122.000 1 21 -17.4907 121.806 TC 35 997 6 0
1967062S16123 1967 19 SI WA GWEN 1967-03-05 03:00:00 TS -17.6192 121.886 main 21 21 P_____P__PP_P_ SH221967 -17.4700 122.000 20 -1 -17.7867 121.707 995 -17.4700 122.000 TC 20 -17.4187 122.000 1 20 -17.7400 121.828 TC 37 996 7 0
1967062S16123 1967 19 SI WA GWEN 1967-03-05 04:00:00 TS -17.7539 121.888 main 30 30 P_____P__PO_P_ SH221967 -17.5375 122.000 20 -1 -17.9945 121.717 995 -17.5375 122.000 TC 20 -17.5000 122.000 1 20 -17.8874 121.846 TC 38 995 8 0
1967062S16123 1967 19 SI WA GWEN 1967-03-05 06:00:00 TS -18.0130 121.892 main 31 30 O_____P__OP_O_ jtwc_sh SH221967 -17.7000 122.000 20 -1 -18.4075 121.760 992 -17.7000 122.000 TC 20 -17.6708 121.892 1 20 -18.2000 121.900 TC 40 994 8 0
1967062S16123 1967 19 SI WA GWEN 1967-03-05 07:00:00 TS -18.1379 121.910 992 bom main 30 0 P_____O__PP_P_ SH221967 -17.7917 121.995 20 -1 -18.6000 121.800 992 4 -17.7917 121.995 TC 20 -17.7688 121.833 1 21 -18.3469 121.928 TC 40 994 8 172
1967062S16123 1967 19 SI WA GWEN 1967-03-05 09:00:00 TS -18.3931 121.957 main 0 0 P_____P__PP_P_ SH221967 -18.0050 121.985 22 -1 -18.9243 121.911 -18.0050 121.985 TC 22 -17.9894 121.728 1 22 -18.6499 122.005 TC 40 994 8 166
1967062S16123 1967 19 SI WA GWEN 1967-03-05 12:00:00 TS -18.7977 122.083 main 0 0 O_____P__OP_O_ jtwc_sh SH221967 -18.4000 122.000 25 -1 -19.3386 122.162 -18.4000 122.000 TC 25 -18.3787 121.675 1 23 -19.1000 122.200 TC 40 995 9 161
1967062S16123 1967 19 SI WA GWEN 1967-03-05 15:00:00 TS -19.2208 122.253 bom main 0 0 P_____O__PP_P_ SH221967 -18.8613 121.929 25 -1 -19.7000 122.500 -18.8613 121.929 TC 25 -18.8343 121.862 1 24 -19.5150 122.505 TC 35 995 9 156
1967062S16123 1967 19 SI WA GWEN 1967-03-05 16:00:00 TS -19.3682 122.346 main 0 0 P_____P__PO_P_ SH221967 -19.0333 121.958 25 -1 -19.8151 122.628 -19.0333 121.958 TC 25 -19.0000 122.000 1 25 -19.6466 122.629 TC 33 995 11 143
1967062S16123 1967 19 SI WA GWEN 1967-03-05 18:00:00 TS -19.6506 122.596 main 0 0 O_____P__OP_O_ jtwc_sh SH221967 -19.4000 122.200 25 -1 -20.0408 122.905 -19.4000 122.200 TC 25 -19.3606 122.452 1 24 -19.9000 122.900 TC 30 996 14 129
1967062S16123 1967 19 SI WA GWEN 1967-03-05 21:00:00 TS -20.1095 123.302 main 0 0 P_____P__PP_P_ SH221967 -20.0012 123.184 22 -1 -20.3705 123.357 -20.0012 123.184 TC 22 -19.9516 123.397 1 22 -20.2577 123.340 TC 27 996 19 120
1967062S16123 1967 19 SI WA GWEN 1967-03-06 00:00:00 TS -20.6071 124.343 main 0 0 O_____P__OP_O_ jtwc_sh SH221967 -20.6000 124.500 20 -1 -20.6933 123.837 -20.6000 124.500 TC 20 -20.5567 124.552 1 21 -20.6000 123.800 TC 25 997 24 115
1967062S16123 1967 19 SI WA GWEN 1967-03-06 01:00:00 TS -20.7767 124.850 996 bom main 0 0 P_____O__PP___ SH221967 -20.7857 124.900 20 -1 -20.8000 124.000 996 -20.7857 124.900 TC 20 -20.7529 124.962 1 21 TC 28 112
1967062S16123 1967 19 SI WA GWEN 1967-03-06 03:00:00 TS -21.1335 125.735 main 0 0 P________PP___ SH221967 -21.1371 125.708 20 -1 -21.1371 125.708 TC 20 -21.1262 125.791 1 20 TC 26 114
1967062S16123 1967 19 SI WA GWEN 1967-03-06 04:00:00 TS -21.3006 126.140 main 0 0 P________PO___ SH221967 -21.3009 126.111 20 -1 -21.3009 126.111 TC 20 -21.3000 126.200 1 20 TC 24 113
1967062S16123 1967 19 SI WA GWEN 1967-03-06 06:00:00 TS -21.5960 126.901 main 0 0 O________OP___ jtwc_sh SH221967 -21.6000 126.900 20 -1 -21.6000 126.900 TC 20 -21.5881 126.904 1 19 22 111
1967062S16123 1967 19 SI WA GWEN 1967-03-06 09:00:00 TS -21.9661 127.996 main 0 0 P________PP___ SH221967 -21.9638 128.009 17 -1 -21.9638 128.009 TC 17 -21.9709 127.971 1 17 22 109
1967062S16123 1967 19 SI WA GWEN 1967-03-06 12:00:00 TS -22.3077 129.088 main 0 0 O________OP___ jtwc_sh SH221967 -22.3000 129.100 15 -1 -22.3000 129.100 TC 15 -22.3231 129.065 1 16 22 109
1967062S16123 1967 19 SI WA GWEN 1967-03-06 15:00:00 TS -22.6865 130.221 main 0 0 P________PP___ SH221967 -22.6915 130.228 15 -1 -22.6915 130.228 TC 15 -22.6765 130.206 1 15 22 110
1967062S16123 1967 19 SI WA GWEN 1967-03-06 16:00:00 TS -22.8180 130.608 main 0 0 P________PO___ SH221967 -22.8270 130.613 15 -1 -22.8270 130.613 TC 15 -22.8000 130.600 1 15 23 110
1967062S16123 1967 19 SI WA GWEN 1967-03-06 18:00:00 TS -23.0871 131.397 main 0 0 O________OP___ jtwc_sh SH221967 -23.1000 131.400 15 -1 -23.1000 131.400 TC 15 -23.0614 131.392 1 15 24 110
1967062S16123 1967 19 SI WA GWEN 1967-03-06 21:00:00 TS -23.4831 132.614 main 0 0 P________PP___ SH221967 -23.4911 132.606 15 -1 -23.4911 132.606 TC 15 -23.4670 132.630 1 17 24 109
1967062S16123 1967 19 SI WA GWEN 1967-03-07 00:00:00 TS -23.8976 133.912 main 0 0 O________OP___ jtwc_sh SH221967 -23.9000 133.900 15 -1 -23.9000 133.900 TC 15 -23.8928 133.935 1 18 26 109
1967062S16123 1967 19 SP EA GWEN 1967-03-07 03:00:00 TS -24.3369 135.301 main 0 0 P________PP___ SH221967 -24.3336 135.291 17 -1 -24.3336 135.291 TC 17 -24.3435 135.319 1 19 27 109
1967062S16123 1967 19 SP EA GWEN 1967-03-07 04:00:00 TS -24.4902 135.787 main 0 0 P________PO___ SH221967 -24.4853 135.781 18 -1 -24.4853 135.781 TC 18 -24.5000 135.800 1 20 29 109
1967062S16123 1967 19 SP EA GWEN 1967-03-07 06:00:00 TS -24.8072 136.803 main 0 0 O________OP___ jtwc_sh SH221967 -24.8000 136.800 20 -1 -24.8000 136.800 TC 20 -24.8216 136.809 1 23 30 109
1967062S16123 1967 19 SP EA GWEN 1967-03-07 09:00:00 TS -25.3025 138.423 main 0 0 P________PP___ SH221967 -25.2921 138.436 27 -1 -25.2921 138.436 TC 27 -25.3233 138.398 1 28 31 109
1967062S16123 1967 19 SP EA GWEN 1967-03-07 12:00:00 TS -25.8110 140.078 main 0 0 O________OP___ jtwc_sh SH221967 -25.8000 140.100 35 0 -25.8000 140.100 TC 35 -25.8331 140.034 1 33 31 109
1967062S16123 1967 19 SP EA GWEN 1967-03-07 15:00:00 TS -26.3156 141.666 main 0 0 P________PP___ SH221967 -26.3053 141.666 37 0 -26.3053 141.666 TC 37 -26.3361 141.666 1 38 30 110
1967062S16123 1967 19 SP EA GWEN 1967-03-07 16:00:00 TS -26.4818 142.186 main 0 0 P________PO___ SH221967 -26.4727 142.179 38 0 -26.4727 142.179 TC 38 -26.5000 142.200 2 40 29 109
1967062S16123 1967 19 SP EA GWEN 1967-03-07 18:00:00 TS -26.8055 143.217 main 0 0 O________OP___ jtwc_sh SH221967 -26.8000 143.200 40 0 -26.8000 143.200 TC 40 -26.8164 143.250 2 36 29 109
1967062S16123 1967 19 SP EA GWEN 1967-03-07 21:00:00 TS -27.2649 144.782 main 0 0 P________PP___ SH221967 -27.2565 144.774 32 -1 -27.2565 144.774 TC 32 -27.2816 144.800 2 31 29 108
1967062S16123 1967 19 SP EA GWEN 1967-03-08 00:00:00 TS -27.7104 146.301 main 0 0 O________OP___ jtwc_sh SH221967 -27.7000 146.300 25 -1 -27.7000 146.300 TC 25 -27.7313 146.302 2 26 28 109
1967062S16123 1967 19 SP EA GWEN 1967-03-08 03:00:00 TS -28.1627 147.738 main 0 0 P________PP___ SH221967 -28.1633 147.738 22 -1 -28.1633 147.738 TC 22 -28.1615 147.739 2 21 27 110
1967062S16123 1967 19 SP EA GWEN 1967-03-08 04:00:00 TS -28.3096 148.199 main 0 0 P________PO___ SH221967 -28.3144 148.199 21 -1 -28.3144 148.199 TC 21 -28.3000 148.200 1 20 25 110
1967062S16123 1967 19 SP EA GWEN 1967-03-08 06:00:00 TS -28.5877 149.097 main 0 0 O________OP___ jtwc_sh SH221967 -28.6000 149.100 20 -1 -28.6000 149.100 TC 20 -28.5692 149.093 1 20 24 109
1967062S16123 1967 19 SP EA GWEN 1967-03-08 09:00:00 TS -28.9643 150.391 main 0 0 P________PP___ SH221967 -28.9725 150.411 20 -1 -28.9725 150.411 TC 20 -28.9562 150.371 1 22 23 108
1967062S16123 1967 19 SP EA GWEN 1967-03-08 12:00:00 TS -29.3160 151.639 main 0 0 O________OP___ jtwc_sh SH221967 -29.3000 151.700 20 -1 -29.3000 151.700 TC 20 -29.3267 151.599 1 23 22 109
1967062S16123 1967 19 SP EA GWEN 1967-03-08 15:00:00 NR -29.6836 152.801 main 0 0 __________P___ SH221967 -1 TC -29.6836 152.801 1 24 22 110
1967062S16123 1967 19 SP EA GWEN 1967-03-08 16:00:00 NR -29.8000 153.200 main 0 __________O___ SH221967 -1 TC -29.8000 153.200 1 25 22 108

About IBTrACS Database

This database is a web-friendly format of International Best Track Archive for Climate Stewardship (IBTrACS), a global best track data archive curated by NOAA dating back to 1842.

Updated: 2021-11-26